Time,TemperatureF,DewpointF,PressureIn,WindDirection,WindDirectionDegrees,WindSpeedMPH,WindSpeedGustMPH,Humidity,HourlyPrecipIn,Conditions,Clouds,dailyrainin,SolarRadiationWatts/m^2,SoftwareType,DateUTC
2014-11-27 00:03:00,37.0,33.0,-100.00,WSW,257,8.0,18.0,84,0.00,,,0.13,0.000000,,2014-11-27 06:03:00,
2014-11-27 00:12:00,37.0,33.0,-100.00,WSW,257,8.0,18.0,84,0.00,,,0.13,0.000000,,2014-11-27 06:12:00,
2014-11-27 00:42:00,37.0,33.0,-100.00,West,263,6.0,12.0,86,0.00,,,0.13,0.000000,,2014-11-27 06:42:00,
2014-11-27 00:52:00,37.0,33.0,-100.00,West,263,6.0,12.0,86,0.00,,,0.13,0.000000,,2014-11-27 06:52:00,
2014-11-27 01:02:00,37.0,33.0,-100.00,West,263,6.0,12.0,86,0.00,,,0.13,0.000000,,2014-11-27 07:02:00,
2014-11-27 01:12:00,37.0,33.0,-100.00,West,263,6.0,12.0,86,0.00,,,0.13,0.000000,,2014-11-27 07:12:00,
2014-11-27 01:43:00,38.0,34.0,-100.00,West,276,5.0,11.0,87,0.00,,,0.13,0.000000,,2014-11-27 07:43:00,
2014-11-27 01:52:00,38.0,34.0,-100.00,West,276,5.0,11.0,87,0.00,,,0.13,0.000000,,2014-11-27 07:52:00,
2014-11-27 02:02:00,38.0,34.0,-100.00,West,276,5.0,11.0,87,0.00,,,0.13,0.000000,,2014-11-27 08:02:00,
2014-11-27 02:11:00,38.0,34.0,-100.00,West,276,5.0,11.0,87,0.00,,,0.13,0.000000,,2014-11-27 08:11:00,
2014-11-27 02:42:00,37.0,33.0,-100.00,NW,314,8.0,17.0,85,0.00,,,0.13,0.000000,,2014-11-27 08:42:00,
2014-11-27 02:52:00,37.0,33.0,-100.00,NW,314,8.0,17.0,85,0.00,,,0.13,0.000000,,2014-11-27 08:52:00,
2014-11-27 03:02:00,37.0,33.0,-100.00,NW,314,8.0,17.0,85,0.00,,,0.13,0.000000,,2014-11-27 09:02:00,
2014-11-27 03:12:00,37.0,33.0,-100.00,NW,314,8.0,17.0,85,0.00,,,0.13,0.000000,,2014-11-27 09:12:00,
2014-11-27 03:44:00,36.0,32.0,-100.00,NW,325,9.0,18.0,84,0.00,,,0.13,0.000000,,2014-11-27 09:44:00,
2014-11-27 03:53:00,36.0,32.0,-100.00,NW,325,9.0,18.0,84,0.00,,,0.13,0.000000,,2014-11-27 09:53:00,
2014-11-27 04:04:00,36.0,32.0,-100.00,NW,325,9.0,18.0,84,0.00,,,0.13,0.000000,,2014-11-27 10:04:00,
2014-11-27 04:12:00,36.0,32.0,-100.00,NW,325,9.0,18.0,84,0.00,,,0.13,0.000000,,2014-11-27 10:12:00,
2014-11-27 04:43:00,36.0,32.0,-100.00,NW,315,6.0,15.0,86,0.00,,,0.13,0.000000,,2014-11-27 10:43:00,
2014-11-27 04:53:00,36.0,32.0,-100.00,NW,315,6.0,15.0,86,0.00,,,0.13,0.000000,,2014-11-27 10:53:00,
2014-11-27 05:03:00,36.0,32.0,-100.00,NW,315,6.0,15.0,86,0.00,,,0.13,0.000000,,2014-11-27 11:03:00,
2014-11-27 05:12:00,36.0,32.0,-100.00,NW,315,6.0,15.0,86,0.00,,,0.13,0.000000,,2014-11-27 11:12:00,
2014-11-27 05:43:00,35.0,33.0,-100.00,NW,318,7.0,15.0,91,0.00,,,0.13,0.000000,,2014-11-27 11:43:00,
2014-11-27 05:53:00,35.0,33.0,-100.00,NW,318,7.0,15.0,91,0.00,,,0.13,0.000000,,2014-11-27 11:53:00,
2014-11-27 06:02:00,35.0,33.0,-100.00,NW,318,7.0,15.0,91,0.00,,,0.13,0.000000,,2014-11-27 12:02:00,
2014-11-27 06:13:00,35.0,33.0,-100.00,NW,318,7.0,15.0,91,0.00,,,0.13,0.000000,,2014-11-27 12:13:00,
2014-11-27 09:03:00,35.0,29.0,-100.00,NW,326,8.0,15.0,79,0.00,,,0.13,57.000000,,2014-11-27 15:03:00,
2014-11-27 09:12:00,35.0,29.0,-100.00,NW,326,8.0,15.0,79,0.00,,,0.13,57.000000,,2014-11-27 15:12:00,
2014-11-27 09:44:00,36.0,29.0,-100.00,NW,319,7.0,16.0,76,0.00,,,0.13,120.000000,,2014-11-27 15:44:00,
2014-11-27 09:54:00,36.0,29.0,-100.00,NW,319,7.0,16.0,76,0.00,,,0.13,120.000000,,2014-11-27 15:54:00,
2014-11-27 10:03:00,36.0,29.0,-100.00,NW,319,7.0,16.0,76,0.00,,,0.13,120.000000,,2014-11-27 16:03:00,
2014-11-27 10:13:00,36.0,29.0,-100.00,NW,319,7.0,16.0,76,0.00,,,0.13,120.000000,,2014-11-27 16:13:00,
2014-11-27 10:43:00,36.0,26.0,-100.00,NNW,327,10.0,19.0,68,0.00,,,0.13,154.000000,,2014-11-27 16:43:00,
2014-11-27 10:53:00,36.0,26.0,-100.00,NNW,327,10.0,19.0,68,0.00,,,0.13,154.000000,,2014-11-27 16:53:00,
2014-11-27 11:03:00,36.0,26.0,-100.00,NNW,327,10.0,19.0,68,0.00,,,0.13,154.000000,,2014-11-27 17:03:00,
2014-11-27 11:13:00,36.0,26.0,-100.00,NNW,327,10.0,19.0,68,0.00,,,0.13,154.000000,,2014-11-27 17:13:00,
2014-11-27 11:43:00,35.0,25.0,-100.00,NW,320,11.0,19.0,66,0.00,,,0.13,251.000000,,2014-11-27 17:43:00,
2014-11-27 11:53:00,35.0,25.0,-100.00,NW,320,11.0,19.0,66,0.00,,,0.13,251.000000,,2014-11-27 17:53:00,
2014-11-27 12:02:00,35.0,25.0,-100.00,NW,320,11.0,19.0,66,0.00,,,0.13,251.000000,,2014-11-27 18:02:00,
2014-11-27 12:13:00,35.0,25.0,-100.00,NW,320,11.0,19.0,66,0.00,,,0.13,251.000000,,2014-11-27 18:13:00,
2014-11-27 12:44:00,34.0,24.0,-100.00,NNW,329,9.0,21.0,66,0.00,,,0.13,261.000000,,2014-11-27 18:44:00,
2014-11-27 12:54:00,34.0,24.0,-100.00,NNW,329,9.0,21.0,66,0.00,,,0.13,261.000000,,2014-11-27 18:54:00,
2014-11-27 13:03:00,34.0,24.0,-100.00,NNW,329,9.0,21.0,66,0.00,,,0.13,261.000000,,2014-11-27 19:03:00,
2014-11-27 13:12:00,34.0,24.0,-100.00,NNW,329,9.0,21.0,66,0.00,,,0.13,261.000000,,2014-11-27 19:12:00,
2014-11-27 13:42:00,34.0,22.0,-100.00,NNW,329,8.0,19.0,61,0.00,,,0.13,343.000000,,2014-11-27 19:42:00,
2014-11-27 13:52:00,34.0,22.0,-100.00,NNW,329,8.0,19.0,61,0.00,,,0.13,343.000000,,2014-11-27 19:52:00,
2014-11-27 14:02:00,34.0,22.0,-100.00,NNW,329,8.0,19.0,61,0.00,,,0.13,343.000000,,2014-11-27 20:02:00,
2014-11-27 14:12:00,34.0,22.0,-100.00,NNW,329,8.0,19.0,61,0.00,,,0.13,343.000000,,2014-11-27 20:12:00,
2014-11-27 14:42:00,35.0,21.0,-100.00,NW,324,8.0,15.0,56,0.00,,,0.13,246.000000,,2014-11-27 20:42:00,
2014-11-27 14:53:00,35.0,21.0,-100.00,NW,324,8.0,15.0,56,0.00,,,0.13,246.000000,,2014-11-27 20:53:00,
2014-11-27 15:03:00,35.0,21.0,-100.00,NW,324,8.0,15.0,56,0.00,,,0.13,246.000000,,2014-11-27 21:03:00,
2014-11-27 15:12:00,35.0,21.0,-100.00,NW,324,8.0,15.0,56,0.00,,,0.13,246.000000,,2014-11-27 21:12:00,
2014-11-27 15:43:00,34.0,21.0,-100.00,NW,313,7.0,14.0,59,0.00,,,0.13,112.000000,,2014-11-27 21:43:00,
2014-11-27 15:53:00,34.0,21.0,-100.00,NW,313,7.0,14.0,59,0.00,,,0.13,112.000000,,2014-11-27 21:53:00,
2014-11-27 16:03:00,34.0,21.0,-100.00,NW,313,7.0,14.0,59,0.00,,,0.13,112.000000,,2014-11-27 22:03:00,
2014-11-27 16:13:00,34.0,21.0,-100.00,NW,313,7.0,14.0,59,0.00,,,0.13,112.000000,,2014-11-27 22:13:00,
2014-11-27 16:43:00,32.0,20.0,-100.00,NW,319,6.0,15.0,61,0.00,,,0.13,29.000000,,2014-11-27 22:43:00,
2014-11-27 16:53:00,32.0,20.0,-100.00,NW,319,6.0,15.0,61,0.00,,,0.13,29.000000,,2014-11-27 22:53:00,
2014-11-27 17:02:00,32.0,20.0,-100.00,NW,319,6.0,15.0,61,0.00,,,0.13,29.000000,,2014-11-27 23:02:00,
2014-11-27 17:12:00,32.0,20.0,-100.00,NW,319,6.0,15.0,61,0.00,,,0.13,29.000000,,2014-11-27 23:12:00,